Anzahl Datensätze: 142
min. Temperatur: -3.0 °C
max. Temperatur: 3.0 °C
max. Windgeschwindigkeit: 19.1 km/h
Niederschlagsumme: 0.0 mm
| Datum |
Zeit |
Temp °C |
Feuchte % |
Taupunkt °C |
Luftdruck hPa |
Wind km/h |
Windrichtung |
Strahlung w/m² |
Niederschlag mm |
|---|---|---|---|---|---|---|---|---|---|
| 27.11.2025 | 00:04 | -0.7 | 93 | -1.7 | 1023.0 | 2.9 | NNO | 0 | 0.0 |
| 27.11.2025 | 00:14 | -0.6 | 93 | -1.6 | 1023.0 | 2.2 | NNO | 0 | 0.0 |
| 27.11.2025 | 00:24 | -0.6 | 92 | -1.7 | 1022.9 | 3.2 | NO | 0 | 0.0 |
| 27.11.2025 | 00:34 | -0.3 | 92 | -1.5 | 1022.8 | 1.8 | NNW | 0 | 0.0 |
| 27.11.2025 | 00:44 | -0.3 | 91 | -1.6 | 1022.8 | 2.5 | N | 0 | 0.0 |
| 27.11.2025 | 00:54 | -0.3 | 91 | -1.7 | 1022.6 | 4.0 | NNO | 0 | 0.0 |
| 27.11.2025 | 01:04 | -0.4 | 91 | -1.7 | 1022.5 | 3.6 | N | 0 | 0.0 |
| 27.11.2025 | 01:14 | -0.2 | 91 | -1.5 | 1022.3 | 1.1 | NNO | 0 | 0.0 |
| 27.11.2025 | 01:24 | -0.5 | 91 | -1.8 | 1022.3 | 3.2 | NNO | 0 | 0.0 |
| 27.11.2025 | 01:34 | -0.4 | 91 | -1.7 | 1022.4 | 2.5 | NNO | 0 | 0.0 |
| 27.11.2025 | 01:44 | -0.4 | 91 | -1.8 | 1022.4 | 2.9 | NNO | 0 | 0.0 |
| 27.11.2025 | 01:55 | -0.5 | 90 | -1.9 | 1022.4 | 1.8 | NNO | 0 | 0.0 |
| 27.11.2025 | 02:05 | -0.7 | 90 | -2.1 | 1022.4 | 3.2 | NO | 0 | 0.0 |
| 27.11.2025 | 02:15 | -0.7 | 90 | -2.1 | 1022.5 | 3.2 | N | 0 | 0.0 |
| 27.11.2025 | 02:25 | -0.8 | 89 | -2.4 | 1022.7 | 3.2 | NO | 0 | 0.0 |
| 27.11.2025 | 02:35 | -0.8 | 89 | -2.4 | 1022.7 | 2.9 | NNO | 0 | 0.0 |
| 27.11.2025 | 02:45 | -0.7 | 90 | -2.2 | 1022.7 | 1.8 | NNO | 0 | 0.0 |
| 27.11.2025 | 02:55 | -0.4 | 89 | -2.0 | 1022.7 | 3.2 | NNO | 0 | 0.0 |
| 27.11.2025 | 03:05 | -0.3 | 89 | -1.8 | 1022.7 | 1.1 | N | 0 | 0.0 |
| 27.11.2025 | 03:15 | -0.2 | 89 | -1.8 | 1022.6 | 2.5 | NNW | 0 | 0.0 |
| 27.11.2025 | 03:25 | -0.5 | 91 | -1.9 | 1022.7 | 2.5 | NNO | 0 | 0.0 |
| 27.11.2025 | 03:35 | -0.4 | 90 | -1.8 | 1022.7 | 2.9 | NNO | 0 | 0.0 |
| 27.11.2025 | 03:45 | -0.5 | 90 | -1.9 | 1022.6 | 2.5 | NO | 0 | 0.0 |
| 27.11.2025 | 03:55 | -0.4 | 89 | -1.9 | 1022.7 | 1.8 | N | 0 | 0.0 |
| 27.11.2025 | 04:05 | -0.3 | 89 | -1.9 | 1022.6 | 2.9 | N | 0 | 0.0 |
| 27.11.2025 | 04:15 | -0.5 | 89 | -2.0 | 1022.7 | 3.2 | NNO | 0 | 0.0 |
| 27.11.2025 | 04:25 | -0.4 | 89 | -2.0 | 1022.7 | 2.5 | NNO | 0 | 0.0 |
| 27.11.2025 | 04:35 | -0.6 | 90 | -2.1 | 1022.7 | 2.2 | NNO | 0 | 0.0 |
| 27.11.2025 | 04:45 | -0.7 | 90 | -2.1 | 1022.8 | 3.2 | NNO | 0 | 0.0 |
| 27.11.2025 | 04:55 | -0.7 | 90 | -2.2 | 1022.8 | 2.2 | NNO | 0 | 0.0 |
| 27.11.2025 | 05:05 | -0.3 | 88 | -2.0 | 1022.8 | 1.4 | N | 0 | 0.0 |
| 27.11.2025 | 05:15 | -0.4 | 87 | -2.3 | 1022.8 | 1.4 | N | 0 | 0.0 |
| 27.11.2025 | 05:25 | -0.7 | 88 | -2.4 | 1022.8 | 3.2 | NNO | 0 | 0.0 |
| 27.11.2025 | 05:35 | -0.6 | 88 | -2.3 | 1023.0 | 2.5 | NO | 0 | 0.0 |
| 27.11.2025 | 05:45 | -0.8 | 88 | -2.6 | 1023.0 | 4.0 | NNO | 0 | 0.0 |
| 27.11.2025 | 05:55 | -0.8 | 87 | -2.8 | 1022.9 | 4.0 | ONO | 0 | 0.0 |
| 27.11.2025 | 06:05 | -0.8 | 86 | -2.9 | 1023.1 | 2.2 | NO | 0 | 0.0 |
| 27.11.2025 | 06:15 | -0.6 | 86 | -2.6 | 1023.0 | 2.2 | N | 0 | 0.0 |
| 27.11.2025 | 06:25 | -0.5 | 87 | -2.5 | 1023.1 | 1.4 | NNO | 0 | 0.0 |
| 27.11.2025 | 06:35 | -0.5 | 88 | -2.2 | 1023.1 | 2.9 | NNO | 0 | 0.0 |
| 27.11.2025 | 06:45 | -0.5 | 88 | -2.3 | 1023.1 | 2.9 | N | 0 | 0.0 |
| 27.11.2025 | 06:56 | -0.5 | 88 | -2.2 | 1023.0 | 2.2 | N | 0 | 0.0 |
| 27.11.2025 | 07:06 | -0.4 | 87 | -2.3 | 1023.2 | 3.2 | N | 0 | 0.0 |
| 27.11.2025 | 07:16 | -0.4 | 87 | -2.3 | 1023.2 | 3.2 | NNO | 0 | 0.0 |
| 27.11.2025 | 07:26 | -0.5 | 88 | -2.3 | 1023.3 | 2.5 | NNO | 0 | 0.0 |
| 27.11.2025 | 07:36 | -0.5 | 88 | -2.3 | 1023.3 | 3.2 | NNO | 0 | 0.0 |
| 27.11.2025 | 07:46 | -0.4 | 88 | -2.1 | 1023.3 | 2.5 | NNW | 0 | 0.0 |
| 27.11.2025 | 07:56 | -0.4 | 88 | -2.2 | 1023.5 | 2.5 | NNO | 2 | 0.0 |
| 27.11.2025 | 08:06 | -0.4 | 87 | -2.3 | 1023.5 | 2.5 | NNO | 4 | 0.0 |
| 27.11.2025 | 08:16 | -0.2 | 87 | -2.1 | 1023.8 | 0.7 | N | 7 | 0.0 |
| 27.11.2025 | 08:26 | -0.1 | 86 | -2.2 | 1023.9 | 1.8 | NNO | 9 | 0.0 |
| 27.11.2025 | 08:36 | -0.3 | 87 | -2.2 | 1024.2 | 2.5 | N | 12 | 0.0 |
| 27.11.2025 | 08:46 | -0.2 | 87 | -2.1 | 1024.3 | 3.2 | NNO | 17 | 0.0 |
| 27.11.2025 | 08:56 | -0.2 | 88 | -2.0 | 1024.4 | 3.2 | NNO | 20 | 0.0 |
| 27.11.2025 | 09:06 | -0.1 | 88 | -1.9 | 1024.5 | 1.8 | NO | 25 | 0.0 |
| 27.11.2025 | 09:36 | 0.1 | 87 | -1.9 | 1024.8 | 2.2 | NNO | 41 | 0.0 |
| 27.11.2025 | 09:46 | 0.2 | 85 | -2.1 | 1025.0 | 0.7 | N | 45 | 0.0 |
| 27.11.2025 | 09:56 | 0.3 | 85 | -2.1 | 1025.2 | 2.2 | S | 53 | 0.0 |
| 27.11.2025 | 10:06 | 0.0 | 84 | -2.4 | 1025.3 | 2.5 | S | 67 | 0.0 |
| 27.11.2025 | 10:16 | -0.3 | 85 | -2.5 | 1025.3 | 2.9 | NNW | 74 | 0.0 |
| 27.11.2025 | 10:26 | 0.4 | 85 | -1.8 | 1024.9 | 0.7 | N | 84 | 0.0 |
| 27.11.2025 | 10:36 | 0.0 | 82 | -2.8 | 1024.9 | 1.8 | SW | 90 | 0.0 |
| 27.11.2025 | 10:46 | 0.3 | 82 | -2.4 | 1024.8 | 1.4 | SSW | 93 | 0.0 |
| 27.11.2025 | 10:56 | 0.2 | 81 | -2.6 | 1024.9 | 2.2 | N | 99 | 0.0 |
| 27.11.2025 | 11:06 | 0.2 | 81 | -2.6 | 1024.7 | 0.7 | N | 122 | 0.0 |
| 27.11.2025 | 11:16 | 0.5 | 82 | -2.2 | 1024.2 | 0.4 | N | 162 | 0.0 |
| 27.11.2025 | 11:26 | 0.9 | 83 | -1.7 | 1024.0 | 3.2 | S | 170 | 0.0 |
| 27.11.2025 | 11:36 | 1.9 | 78 | -1.6 | 1023.9 | 3.6 | SSW | 389 | 0.0 |
| 27.11.2025 | 11:46 | 2.5 | 73 | -1.9 | 1023.5 | 2.2 | N | 408 | 0.0 |
| 27.11.2025 | 11:56 | 3.0 | 73 | -1.4 | 1023.3 | 1.1 | N | 387 | 0.0 |
| 27.11.2025 | 12:06 | 2.4 | 69 | -2.6 | 1023.1 | 6.8 | S | 336 | 0.0 |
| 27.11.2025 | 12:17 | 2.5 | 72 | -2.0 | 1023.4 | 1.8 | S | 324 | 0.0 |
| 27.11.2025 | 12:27 | 2.3 | 70 | -2.7 | 1023.5 | 4.7 | S | 317 | 0.0 |
| 27.11.2025 | 12:37 | 2.7 | 69 | -2.5 | 1023.4 | 5.8 | S | 322 | 0.0 |
| 27.11.2025 | 12:47 | 2.5 | 70 | -2.5 | 1023.4 | 8.6 | S | 316 | 0.0 |
| 27.11.2025 | 12:57 | 2.8 | 73 | -1.6 | 1023.2 | 6.5 | S | 308 | 0.0 |
| 27.11.2025 | 13:07 | 2.8 | 73 | -1.6 | 1023.2 | 4.0 | S | 300 | 0.0 |
| 27.11.2025 | 13:17 | 3.0 | 73 | -1.3 | 1023.1 | 6.1 | S | 289 | 0.0 |
| 27.11.2025 | 13:27 | 2.8 | 73 | -1.5 | 1023.0 | 6.8 | S | 274 | 0.0 |
| 27.11.2025 | 13:37 | 2.6 | 71 | -2.2 | 1023.1 | 7.6 | S | 203 | 0.0 |
| 27.11.2025 | 13:47 | 2.1 | 74 | -2.1 | 1023.2 | 5.8 | S | 280 | 0.0 |
| 27.11.2025 | 13:57 | 2.7 | 69 | -2.5 | 1022.9 | 7.6 | S | 284 | 0.0 |
| 27.11.2025 | 14:07 | 1.4 | 74 | -2.8 | 1022.9 | 11.9 | S | 263 | 0.0 |
| 27.11.2025 | 14:17 | 1.6 | 71 | -3.1 | 1022.8 | 5.4 | S | 231 | 0.0 |
| 27.11.2025 | 14:27 | 1.2 | 71 | -3.4 | 1022.7 | 5.4 | S | 219 | 0.0 |
| 27.11.2025 | 14:37 | 1.6 | 71 | -3.1 | 1022.6 | 4.3 | S | 210 | 0.0 |
| 27.11.2025 | 14:47 | 2.3 | 70 | -2.6 | 1022.4 | 4.7 | S | 197 | 0.0 |
| 27.11.2025 | 14:57 | 1.9 | 70 | -3.0 | 1022.5 | 2.5 | S | 175 | 0.0 |
| 27.11.2025 | 15:07 | 1.9 | 67 | -3.6 | 1022.6 | 6.1 | S | 159 | 0.0 |
| 27.11.2025 | 15:17 | 1.1 | 72 | -3.4 | 1022.8 | 8.6 | S | 144 | 0.0 |
| 27.11.2025 | 15:27 | 1.8 | 72 | -2.7 | 1022.8 | 1.4 | SSW | 125 | 0.0 |
| 27.11.2025 | 15:37 | 2.1 | 67 | -3.4 | 1022.7 | 3.2 | SSW | 109 | 0.0 |
| 27.11.2025 | 15:47 | 1.8 | 67 | -3.6 | 1023.0 | 1.4 | SW | 94 | 0.0 |
| 27.11.2025 | 15:57 | 1.7 | 70 | -3.2 | 1023.1 | 4.3 | S | 77 | 0.0 |
| 27.11.2025 | 16:07 | 1.0 | 76 | -2.9 | 1023.3 | 6.1 | S | 19 | 0.0 |
| 27.11.2025 | 16:17 | 0.4 | 79 | -2.9 | 1023.6 | 6.5 | N | 15 | 0.0 |
| 27.11.2025 | 16:27 | 0.5 | 79 | -2.8 | 1023.9 | 3.6 | NO | 10 | 0.0 |
| 27.11.2025 | 16:37 | 0.4 | 77 | -3.2 | 1024.1 | 1.8 | SW | 4 | 0.0 |
| 27.11.2025 | 16:47 | 0.3 | 78 | -3.1 | 1024.1 | 1.1 | S | 2 | 0.0 |
| 27.11.2025 | 16:57 | -0.1 | 80 | -3.1 | 1024.5 | 1.4 | N | 0 | 0.0 |
| 27.11.2025 | 17:07 | -0.6 | 83 | -3.2 | 1024.7 | 2.2 | N | 0 | 0.0 |
| 27.11.2025 | 17:18 | -0.3 | 82 | -3.0 | 1024.7 | 2.5 | SSW | 0 | 0.0 |
| 27.11.2025 | 17:28 | -0.6 | 81 | -3.5 | 1024.8 | 1.1 | N | 0 | 0.0 |
| 27.11.2025 | 17:38 | -0.6 | 80 | -3.7 | 1025.0 | 1.4 | S | 0 | 0.0 |
| 27.11.2025 | 17:48 | -0.9 | 81 | -3.7 | 1025.1 | 1.8 | N | 0 | 0.0 |
| 27.11.2025 | 17:58 | -1.2 | 82 | -3.9 | 1025.3 | 1.1 | N | 0 | 0.0 |
| 27.11.2025 | 18:08 | -1.3 | 82 | -4.1 | 1025.4 | 1.8 | N | 0 | 0.0 |
| 27.11.2025 | 18:18 | -1.3 | 82 | -4.0 | 1025.3 | 2.5 | N | 0 | 0.0 |
| 27.11.2025 | 18:28 | -1.1 | 83 | -3.6 | 1025.2 | 3.2 | NNO | 0 | 0.0 |
| 27.11.2025 | 18:38 | -1.2 | 82 | -3.9 | 1025.3 | 3.2 | NO | 0 | 0.0 |
| 27.11.2025 | 18:48 | -0.9 | 78 | -4.2 | 1025.4 | 1.8 | N | 0 | 0.0 |
| 27.11.2025 | 18:58 | -1.1 | 79 | -4.2 | 1025.4 | 0.7 | NO | 0 | 0.0 |
| 27.11.2025 | 19:08 | -1.2 | 82 | -3.9 | 1025.5 | 2.9 | NNO | 0 | 0.0 |
| 27.11.2025 | 19:18 | -1.2 | 81 | -3.9 | 1025.6 | 1.4 | NNO | 0 | 0.0 |
| 27.11.2025 | 19:28 | -1.1 | 82 | -3.9 | 1025.6 | 3.2 | NNW | 0 | 0.0 |
| 27.11.2025 | 19:38 | -1.5 | 83 | -4.0 | 1025.8 | 2.2 | ONO | 0 | 0.0 |
| 27.11.2025 | 19:48 | -1.5 | 83 | -4.0 | 1025.8 | 2.9 | NO | 0 | 0.0 |
| 27.11.2025 | 19:58 | -1.6 | 83 | -4.0 | 1025.9 | 1.8 | ONO | 0 | 0.0 |
| 27.11.2025 | 20:08 | -1.6 | 83 | -4.1 | 1026.0 | 1.8 | NO | 0 | 0.0 |
| 27.11.2025 | 20:18 | -1.5 | 80 | -4.5 | 1025.9 | 1.8 | N | 0 | 0.0 |
| 27.11.2025 | 20:28 | -1.8 | 83 | -4.2 | 1025.9 | 2.5 | N | 0 | 0.0 |
| 27.11.2025 | 20:38 | -2.0 | 85 | -4.2 | 1026.0 | 2.2 | N | 0 | 0.0 |
| 27.11.2025 | 20:48 | -2.0 | 86 | -4.0 | 1026.2 | 1.8 | NNO | 0 | 0.0 |
| 27.11.2025 | 20:58 | -2.1 | 85 | -4.4 | 1026.3 | 1.8 | NNO | 0 | 0.0 |
| 27.11.2025 | 21:08 | -2.0 | 83 | -4.5 | 1026.4 | 2.5 | ONO | 0 | 0.0 |
| 27.11.2025 | 21:18 | -2.0 | 84 | -4.4 | 1026.4 | 1.8 | NO | 0 | 0.0 |
| 27.11.2025 | 21:28 | -2.1 | 83 | -4.6 | 1026.3 | 1.4 | NO | 0 | 0.0 |
| 27.11.2025 | 21:38 | -2.1 | 83 | -4.6 | 1026.3 | 1.4 | N | 0 | 0.0 |
| 27.11.2025 | 21:48 | -2.3 | 84 | -4.6 | 1026.3 | 2.9 | NNO | 0 | 0.0 |
| 27.11.2025 | 21:58 | -2.0 | 83 | -4.6 | 1026.2 | 1.4 | NW | 0 | 0.0 |
| 27.11.2025 | 22:08 | -2.2 | 85 | -4.5 | 1026.4 | 2.5 | N | 0 | 0.0 |
| 27.11.2025 | 22:18 | -2.4 | 85 | -4.6 | 1026.5 | 1.4 | NO | 0 | 0.0 |
| 27.11.2025 | 22:29 | -2.3 | 84 | -4.7 | 1026.5 | 1.8 | N | 0 | 0.0 |
| 27.11.2025 | 22:39 | -2.4 | 83 | -4.9 | 1026.6 | 1.8 | NNO | 0 | 0.0 |
| 27.11.2025 | 22:49 | -2.3 | 82 | -4.9 | 1026.4 | 2.2 | N | 0 | 0.0 |
| 27.11.2025 | 22:59 | -2.5 | 83 | -4.9 | 1026.3 | 2.2 | ONO | 0 | 0.0 |
| 27.11.2025 | 23:09 | -2.6 | 83 | -5.1 | 1026.3 | 2.5 | NNO | 0 | 0.0 |
| 27.11.2025 | 23:19 | -2.5 | 83 | -5.0 | 1026.4 | 1.1 | ONO | 0 | 0.0 |
| 27.11.2025 | 23:29 | -2.5 | 83 | -5.0 | 1026.4 | 0.4 | N | 0 | 0.0 |
| 27.11.2025 | 23:39 | -2.7 | 85 | -4.9 | 1026.4 | 2.2 | NNO | 0 | 0.0 |
| 27.11.2025 | 23:49 | -3.0 | 85 | -5.1 | 1026.5 | 2.5 | NNO | 0 | 0.0 |
| 27.11.2025 | 23:59 | -3.0 | 86 | -5.0 | 1026.5 | 0.4 | N | 0 | 0.0 |